createdAt,value
2022-11-24T00:01:16.586Z,30.15
2022-11-24T00:03:44.068Z,30.67
2022-11-24T00:06:12.699Z,30.48
2022-11-24T00:08:41.033Z,29.65
2022-11-24T00:11:10.215Z,30.42
2022-11-24T00:13:37.336Z,28.50
2022-11-24T00:16:09.325Z,31.52
2022-11-24T00:18:37.767Z,29.42
2022-11-24T00:21:04.821Z,28.90
2022-11-24T00:23:31.724Z,31.50
2022-11-24T00:26:04.209Z,31.55
2022-11-24T00:28:31.907Z,31.45
2022-11-24T00:30:58.681Z,31.02
2022-11-24T00:33:25.425Z,32.92
2022-11-24T00:35:56.021Z,33.25
2022-11-24T00:38:22.847Z,31.27
2022-11-24T00:40:49.702Z,30.08
2022-11-24T00:43:16.356Z,32.15
2022-11-24T00:45:43.454Z,31.92
2022-11-24T00:48:10.308Z,30.85
2022-11-24T00:50:37.059Z,31.90
2022-11-24T00:53:05.170Z,30.45
2022-11-24T00:55:31.972Z,31.27
2022-11-24T00:57:58.863Z,31.80
2022-11-24T01:00:25.640Z,30.13
2022-11-24T01:02:52.555Z,29.77
2022-11-24T01:05:19.457Z,30.35
2022-11-24T01:07:46.207Z,30.52
2022-11-24T01:10:14.439Z,30.48
2022-11-24T01:12:41.124Z,30.00
2022-11-24T01:15:08.600Z,29.35
2022-11-24T01:17:35.294Z,30.05
2022-11-24T01:20:02.029Z,28.88
2022-11-24T01:22:28.759Z,31.10
2022-11-24T01:24:55.442Z,32.40
2022-11-24T01:27:23.521Z,30.30
2022-11-24T01:29:50.171Z,29.58
2022-11-24T01:32:16.865Z,30.00
2022-11-24T01:34:43.642Z,28.38
2022-11-24T01:37:10.361Z,29.67
2022-11-24T01:39:37.040Z,30.40
2022-11-24T01:42:03.824Z,29.30
2022-11-24T01:44:32.222Z,29.38
2022-11-24T01:47:02.708Z,29.50
2022-11-24T01:49:38.349Z,28.83
2022-11-24T01:52:08.433Z,30.80
2022-11-24T01:54:38.149Z,28.15
2022-11-24T01:57:11.223Z,27.05
2022-11-24T01:59:39.490Z,27.30
2022-11-24T02:02:06.730Z,26.05
2022-11-24T02:04:34.575Z,26.73
2022-11-24T02:07:03.308Z,27.25
2022-11-24T02:09:36.080Z,27.13
2022-11-24T02:12:03.264Z,26.58
2022-11-24T02:14:30.157Z,26.77
2022-11-24T02:16:58.284Z,27.90
2022-11-24T02:19:37.627Z,27.25
2022-11-24T02:22:05.021Z,27.35
2022-11-24T02:24:40.104Z,26.20
2022-11-24T02:27:10.653Z,25.70
2022-11-24T02:29:37.967Z,25.83
2022-11-24T02:32:07.533Z,25.30
2022-11-24T02:34:34.831Z,25.95
2022-11-24T02:37:01.783Z,26.52
2022-11-24T02:39:28.683Z,25.05
2022-11-24T02:41:59.337Z,25.73
2022-11-24T02:44:32.633Z,23.77
2022-11-24T02:47:03.828Z,24.58
2022-11-24T02:49:30.511Z,25.52
2022-11-24T02:51:57.290Z,25.17
2022-11-24T02:54:24.113Z,25.13
2022-11-24T02:56:50.956Z,25.85
2022-11-24T02:59:17.769Z,25.17
2022-11-24T03:01:45.907Z,25.88
2022-11-24T03:04:12.716Z,24.63
2022-11-24T03:06:39.561Z,22.83
2022-11-24T03:09:06.511Z,23.63
2022-11-24T03:11:33.280Z,24.40
2022-11-24T03:14:00.046Z,23.05
2022-11-24T03:16:26.794Z,24.70
2022-11-24T03:18:54.938Z,26.40
2022-11-24T03:21:21.686Z,24.08
2022-11-24T03:23:48.405Z,24.88
2022-11-24T03:26:17.542Z,23.70
2022-11-24T03:28:44.467Z,23.35
2022-11-24T03:31:12.077Z,23.25
2022-11-24T03:33:39.374Z,23.75
2022-11-24T03:36:08.824Z,23.65
2022-11-24T03:38:35.506Z,24.20
2022-11-24T03:41:02.260Z,21.48
2022-11-24T03:43:29.022Z,22.80
2022-11-24T03:45:55.846Z,24.15
2022-11-24T03:48:22.633Z,24.80
2022-11-24T03:50:54.012Z,44.60
2022-11-24T03:53:22.634Z,40.28
2022-11-24T03:55:49.344Z,42.17
2022-11-24T03:58:16.068Z,52.88
2022-11-24T04:00:42.952Z,26.23
2022-11-24T04:03:09.717Z,24.08
2022-11-24T04:05:36.712Z,24.20
2022-11-24T04:08:03.562Z,23.55
2022-11-24T04:10:32.192Z,24.45
2022-11-24T04:12:58.955Z,25.85
2022-11-24T04:15:25.552Z,24.65
2022-11-24T04:17:55.603Z,24.88
2022-11-24T04:20:23.099Z,24.42
2022-11-24T04:22:50.178Z,25.02
2022-11-24T04:25:16.844Z,24.42
2022-11-24T04:27:44.864Z,24.05
2022-11-24T04:30:11.915Z,25.02
2022-11-24T04:32:38.543Z,25.42
2022-11-24T04:35:05.875Z,26.92
2022-11-24T04:37:32.525Z,26.00
2022-11-24T04:39:59.236Z,23.83
2022-11-24T04:42:25.909Z,26.13
2022-11-24T04:44:53.860Z,26.77
2022-11-24T04:47:23.103Z,24.80
2022-11-24T04:49:50.347Z,27.42
2022-11-24T04:52:17.329Z,24.60
2022-11-24T04:54:44.147Z,25.30
2022-11-24T04:57:16.184Z,26.27
2022-11-24T04:59:43.056Z,22.67
2022-11-24T05:02:11.373Z,26.48
2022-11-24T05:04:38.308Z,22.17
2022-11-24T05:07:05.374Z,24.13
2022-11-24T05:09:54.923Z,26.20
2022-11-24T05:12:18.577Z,24.80
2022-11-24T05:14:45.181Z,25.27
2022-11-24T05:17:13.142Z,26.27
2022-11-24T05:19:39.741Z,25.70
2022-11-24T05:22:06.363Z,41.40
2022-11-24T05:24:33.148Z,44.58
2022-11-24T05:26:59.973Z,51.33
2022-11-24T05:29:26.576Z,35.78
2022-11-24T05:31:53.168Z,32.85
2022-11-24T05:34:21.186Z,31.35
2022-11-24T05:36:47.718Z,40.33
2022-11-24T05:39:14.315Z,35.97
2022-11-24T05:41:41.774Z,34.63
2022-11-24T05:44:08.519Z,48.70
2022-11-24T05:46:35.132Z,37.42
2022-11-24T05:49:01.845Z,29.88
2022-11-24T05:51:29.960Z,38.30
2022-11-24T05:53:56.646Z,37.80
2022-11-24T05:56:23.201Z,29.00
2022-11-24T05:58:49.740Z,30.75
2022-11-24T06:01:16.292Z,30.40
2022-11-24T06:03:42.856Z,34.13
2022-11-24T06:06:10.428Z,33.20
2022-11-24T06:08:38.369Z,32.90
2022-11-24T06:11:05.098Z,29.38
2022-11-24T06:13:31.687Z,33.63
2022-11-24T06:15:59.373Z,35.10
2022-11-24T06:18:25.983Z,32.60
2022-11-24T06:21:09.780Z,30.30
2022-11-24T06:23:38.603Z,33.88
2022-11-24T06:26:05.533Z,29.20
2022-11-24T06:28:32.137Z,30.45
2022-11-24T06:31:02.408Z,31.92
2022-11-24T06:33:31.779Z,37.50
2022-11-24T06:36:00.397Z,32.53
2022-11-24T06:38:27.056Z,22.85
2022-11-24T06:41:00.343Z,24.73
2022-11-24T06:43:26.969Z,24.88
2022-11-24T06:45:53.602Z,24.73
2022-11-24T06:48:20.229Z,26.15
2022-11-24T06:50:46.818Z,27.35
2022-11-24T06:53:13.370Z,29.83
2022-11-24T06:55:40.159Z,25.52
2022-11-24T06:58:08.074Z,25.10
2022-11-24T07:00:34.699Z,25.35
2022-11-24T07:03:01.370Z,24.55
2022-11-24T07:05:28.210Z,24.70
2022-11-24T07:07:54.855Z,28.60
2022-11-24T07:10:21.696Z,25.55
2022-11-24T07:12:48.292Z,25.40
2022-11-24T07:15:16.411Z,23.42
2022-11-24T07:17:42.988Z,26.10
2022-11-24T07:20:10.409Z,26.70
2022-11-24T07:22:36.996Z,26.27
2022-11-24T07:25:03.951Z,29.17
2022-11-24T07:27:30.531Z,26.17
2022-11-24T07:29:57.144Z,25.85
2022-11-24T07:32:25.180Z,21.83
2022-11-24T07:34:51.774Z,21.40
2022-11-24T07:37:18.364Z,21.38
2022-11-24T07:39:44.894Z,21.02
2022-11-24T07:42:11.534Z,20.92
2022-11-24T07:44:38.076Z,21.02
2022-11-24T07:47:04.696Z,20.38
2022-11-24T07:49:32.684Z,21.52
2022-11-24T07:51:59.277Z,20.83
2022-11-24T07:54:25.823Z,21.00
2022-11-24T07:56:52.346Z,20.88
2022-11-24T07:59:18.928Z,21.05
2022-11-24T08:01:45.525Z,20.67
2022-11-24T08:04:12.293Z,21.02
2022-11-24T08:06:45.944Z,22.08
2022-11-24T08:09:13.858Z,19.92
2022-11-24T08:11:40.628Z,19.95
2022-11-24T08:14:07.234Z,19.80
2022-11-24T08:16:33.892Z,20.40
2022-11-24T08:19:00.506Z,21.40
2022-11-24T08:21:27.046Z,20.67
2022-11-24T08:23:56.241Z,23.42
2022-11-24T08:26:23.391Z,26.90
2022-11-24T08:28:54.069Z,22.73
2022-11-24T08:31:20.802Z,21.23
2022-11-24T08:33:47.436Z,30.52
2022-11-24T08:36:15.630Z,27.55
2022-11-24T08:38:42.682Z,20.40
2022-11-24T08:41:12.417Z,20.08
2022-11-24T08:43:39.492Z,20.77
2022-11-24T08:46:09.214Z,41.13
2022-11-24T08:48:36.808Z,29.10
2022-11-24T08:51:07.272Z,22.42
2022-11-24T08:53:33.970Z,22.88
2022-11-24T08:56:00.767Z,22.60
2022-11-24T08:58:29.773Z,22.60
2022-11-24T09:01:03.206Z,26.05
2022-11-24T09:03:29.894Z,25.27
2022-11-24T09:05:56.458Z,25.40
2022-11-24T09:08:23.026Z,20.38
2022-11-24T09:10:49.576Z,21.33
2022-11-24T09:13:16.183Z,20.80
2022-11-24T09:15:44.151Z,19.98
2022-11-24T09:18:10.685Z,19.98
2022-11-24T09:20:37.372Z,19.55
2022-11-24T09:23:03.912Z,19.85
2022-11-24T09:25:30.490Z,21.17
2022-11-24T09:27:57.171Z,20.48
2022-11-24T09:30:24.007Z,21.73
2022-11-24T09:32:51.976Z,20.05
2022-11-24T09:35:18.593Z,19.55
2022-11-24T09:37:45.184Z,20.30
2022-11-24T09:40:14.752Z,19.83
2022-11-24T09:42:53.513Z,19.95
2022-11-24T09:46:03.318Z,20.10
2022-11-24T09:48:25.562Z,18.02
2022-11-24T09:50:52.994Z,19.00
2022-11-24T09:53:27.401Z,19.50
2022-11-24T09:55:58.428Z,18.40
2022-11-24T09:58:35.833Z,21.02
2022-11-24T10:01:07.706Z,19.08
2022-11-24T10:03:39.148Z,20.30
2022-11-24T10:06:19.718Z,19.48
2022-11-24T10:09:30.738Z,20.23
2022-11-24T10:12:13.187Z,20.40
2022-11-24T10:15:00.815Z,20.52
2022-11-24T10:17:42.622Z,19.30
2022-11-24T10:20:19.100Z,19.70
2022-11-24T10:22:58.060Z,20.23
2022-11-24T10:25:26.129Z,21.38
2022-11-24T10:27:57.951Z,19.80
2022-11-24T10:30:24.659Z,20.52
2022-11-24T10:32:56.836Z,21.33
2022-11-24T10:35:29.690Z,20.58
2022-11-24T10:38:02.382Z,20.13
2022-11-24T10:43:26.459Z,20.10
2022-11-24T10:45:53.378Z,21.08
2022-11-24T10:48:24.108Z,20.42
2022-11-24T10:50:53.199Z,19.63
2022-11-24T10:53:24.616Z,21.05
2022-11-24T10:56:02.080Z,20.13
2022-11-24T10:58:36.025Z,20.48
2022-11-24T11:01:27.548Z,19.85
2022-11-24T11:03:57.966Z,19.30
2022-11-24T11:06:28.152Z,20.73
2022-11-24T11:09:16.687Z,19.25
2022-11-24T11:11:43.253Z,21.25
2022-11-24T11:14:11.068Z,20.42
2022-11-24T11:16:39.833Z,20.10
2022-11-24T11:19:48.525Z,20.38
2022-11-24T11:22:25.406Z,21.50
2022-11-24T11:25:05.677Z,21.17
2022-11-24T11:27:32.342Z,21.98
2022-11-24T11:35:51.826Z,22.00
2022-11-24T11:38:20.665Z,20.90
2022-11-24T11:40:50.219Z,21.45
2022-11-24T11:43:25.751Z,22.67
2022-11-24T11:46:02.183Z,22.02
2022-11-24T11:48:40.593Z,22.48
2022-11-24T11:51:30.770Z,22.23
2022-11-24T11:54:07.911Z,21.58
2022-11-24T11:56:37.998Z,23.77
2022-11-24T11:59:37.541Z,21.85
2022-11-24T12:02:33.321Z,21.55
2022-11-24T12:05:01.935Z,21.30
2022-11-24T12:07:58.154Z,22.42
2022-11-24T12:10:36.222Z,22.88
2022-11-24T12:13:28.741Z,23.98
2022-11-24T12:15:58.805Z,21.65
2022-11-24T12:18:56.589Z,23.52
2022-11-24T12:21:29.738Z,21.48
2022-11-24T12:24:04.528Z,22.48
2022-11-24T12:26:42.581Z,24.58
2022-11-24T12:30:06.038Z,22.35
2022-11-24T12:33:00.924Z,22.60
2022-11-24T12:35:34.326Z,22.85
2022-11-24T12:41:06.495Z,23.52
2022-11-24T12:43:50.122Z,23.05
2022-11-24T12:46:21.112Z,22.40
2022-11-24T12:48:57.640Z,22.95
2022-11-24T12:51:29.234Z,23.73
2022-11-24T12:53:58.529Z,21.75
2022-11-24T12:56:35.990Z,22.88
2022-11-24T12:59:17.950Z,23.65
2022-11-24T13:01:51.174Z,22.75
2022-11-24T13:04:29.898Z,23.33
2022-11-24T13:07:01.179Z,23.67
2022-11-24T13:09:27.794Z,23.85
2022-11-24T13:12:05.180Z,24.00
2022-11-24T13:14:37.548Z,22.40
2022-11-24T13:17:38.310Z,24.23
2022-11-24T13:20:24.168Z,23.17
2022-11-24T13:22:52.719Z,23.05
2022-11-24T13:25:21.629Z,23.70
2022-11-24T13:27:50.036Z,23.08
2022-11-24T13:30:55.274Z,21.98
2022-11-24T13:33:33.815Z,23.27
2022-11-24T13:36:32.610Z,24.10
2022-11-24T13:39:01.038Z,21.52
2022-11-24T13:42:07.594Z,21.63
2022-11-24T13:44:53.994Z,21.05
2022-11-24T13:47:37.424Z,21.60
2022-11-24T13:50:06.884Z,22.77
2022-11-24T13:52:43.811Z,21.95
2022-11-24T13:55:22.822Z,22.17
2022-11-24T13:57:52.079Z,23.55
2022-11-24T14:00:21.975Z,23.83
2022-11-24T14:02:51.695Z,22.02
2022-11-24T14:05:22.550Z,23.02
2022-11-24T14:07:53.008Z,22.58
2022-11-24T14:10:24.461Z,22.25
2022-11-24T14:13:25.054Z,21.63
2022-11-24T14:15:59.416Z,22.52
2022-11-24T14:18:27.954Z,23.05
2022-11-24T14:20:54.781Z,24.20
2022-11-24T14:23:21.865Z,23.63
2022-11-24T14:25:49.724Z,25.90
2022-11-24T14:28:22.799Z,24.85
2022-11-24T14:30:49.530Z,24.58
2022-11-24T14:33:18.510Z,25.90
2022-11-24T14:35:47.965Z,23.27
2022-11-24T14:38:14.685Z,24.60
2022-11-24T14:40:43.508Z,22.77
2022-11-24T14:43:21.548Z,24.55
2022-11-24T14:45:53.314Z,23.38
2022-11-24T14:48:25.632Z,24.63
2022-11-24T14:50:54.754Z,24.40
2022-11-24T14:53:26.184Z,23.52
2022-11-24T14:56:14.035Z,21.75
2022-11-24T14:58:42.459Z,22.60
2022-11-24T15:01:17.900Z,23.52
2022-11-24T15:03:44.584Z,23.48
2022-11-24T15:06:18.131Z,25.20
2022-11-24T15:08:46.906Z,24.52
2022-11-24T15:11:14.644Z,23.40
2022-11-24T15:13:53.063Z,25.40
2022-11-24T15:16:23.158Z,24.65
2022-11-24T15:18:57.382Z,24.52
2022-11-24T15:21:32.651Z,25.10
2022-11-24T15:24:07.492Z,25.02
2022-11-24T15:26:38.519Z,23.95
2022-11-24T15:29:08.818Z,26.00
2022-11-24T15:31:35.614Z,25.40
2022-11-24T15:34:02.216Z,24.38
2022-11-24T15:36:28.865Z,82.20
2022-11-24T15:38:56.860Z,56.40
2022-11-24T15:41:28.313Z,65.35
2022-11-24T15:43:54.887Z,36.20
2022-11-24T15:46:21.646Z,31.25
2022-11-24T15:48:48.262Z,26.02
2022-11-24T15:51:15.277Z,25.40
2022-11-24T15:53:45.016Z,64.45
2022-11-24T15:56:19.070Z,31.30
2022-11-24T15:58:45.694Z,28.92
2022-11-24T16:01:12.289Z,24.95
2022-11-24T16:03:47.091Z,26.35
2022-11-24T16:06:22.184Z,27.83
2022-11-24T16:08:51.366Z,25.52
2022-11-24T16:11:19.297Z,27.80
2022-11-24T16:13:51.799Z,26.40
2022-11-24T16:16:20.590Z,29.60
2022-11-24T16:18:47.338Z,25.95
2022-11-24T16:21:13.993Z,26.55
2022-11-24T16:23:40.655Z,28.83
2022-11-24T16:26:07.518Z,26.00
2022-11-24T16:28:35.513Z,26.42
2022-11-24T16:31:02.301Z,25.15
2022-11-24T16:33:29.639Z,26.55
2022-11-24T16:35:56.407Z,33.75
2022-11-24T16:38:23.029Z,38.15
2022-11-24T16:40:51.263Z,43.85
2022-11-24T16:43:18.028Z,48.35
2022-11-24T16:45:46.203Z,51.72
2022-11-24T16:48:12.896Z,54.80
2022-11-24T16:50:39.495Z,51.15
2022-11-24T16:53:06.087Z,46.22
2022-11-24T16:55:32.670Z,53.60
2022-11-24T16:57:59.222Z,41.47
2022-11-24T17:00:25.762Z,35.03
2022-11-24T17:02:53.936Z,31.83
2022-11-24T17:05:20.612Z,33.08
2022-11-24T17:07:47.293Z,28.00
2022-11-24T17:10:14.010Z,25.25
2022-11-24T17:12:40.559Z,26.92
2022-11-24T17:15:31.849Z,28.48
2022-11-24T17:18:23.043Z,39.97
2022-11-24T17:20:42.274Z,30.85
2022-11-24T17:23:08.859Z,33.10
2022-11-24T17:25:35.469Z,27.20
2022-11-24T17:28:02.043Z,25.15
2022-11-24T17:30:28.714Z,25.17
2022-11-24T17:32:57.134Z,24.95
2022-11-24T17:35:23.792Z,23.73
2022-11-24T17:37:50.436Z,24.45
2022-11-24T17:40:32.391Z,24.98
2022-11-24T17:42:59.354Z,29.35
2022-11-24T17:45:26.099Z,25.17
2022-11-24T17:47:52.751Z,27.42
2022-11-24T17:50:25.460Z,26.50
2022-11-24T17:55:19.348Z,25.55
2022-11-24T17:57:45.906Z,25.55
2022-11-24T18:00:13.808Z,40.80
2022-11-24T18:02:40.447Z,31.80
2022-11-24T18:05:07.808Z,28.77
2022-11-24T18:07:36.570Z,28.88
2022-11-24T18:10:03.945Z,28.58
2022-11-24T18:12:30.552Z,27.33
2022-11-24T18:14:57.234Z,28.63
2022-11-24T18:17:23.840Z,27.95
2022-11-24T18:19:50.562Z,26.38
2022-11-24T18:22:17.644Z,26.10
2022-11-24T18:24:47.010Z,25.70
2022-11-24T18:27:13.580Z,24.15
2022-11-24T18:29:40.142Z,28.00
2022-11-24T18:32:06.785Z,34.00
2022-11-24T18:34:33.741Z,28.10
2022-11-24T18:37:00.563Z,26.30
2022-11-24T18:39:27.097Z,25.95
2022-11-24T18:41:55.083Z,29.40
2022-11-24T18:44:21.775Z,32.35
2022-11-24T18:46:49.268Z,29.42
2022-11-24T18:49:15.877Z,27.02
2022-11-24T18:51:42.474Z,26.40
2022-11-24T18:54:09.035Z,27.48
2022-11-24T18:56:35.603Z,25.40
2022-11-24T18:59:03.525Z,26.58
2022-11-24T19:01:30.200Z,25.83
2022-11-24T19:03:58.442Z,24.90
2022-11-24T19:06:27.269Z,25.75
2022-11-24T19:08:54.725Z,26.73
2022-11-24T19:11:22.704Z,25.20
2022-11-24T19:13:50.502Z,25.75
2022-11-24T19:16:19.768Z,24.75
2022-11-24T19:18:51.971Z,27.52
2022-11-24T19:23:46.643Z,21.58
2022-11-24T19:26:13.419Z,24.58
2022-11-24T19:28:40.045Z,23.08
2022-11-24T19:31:08.457Z,21.75
2022-11-24T19:33:36.511Z,22.77
2022-11-24T19:36:04.857Z,23.52
2022-11-24T19:38:33.201Z,24.35
2022-11-24T19:41:01.384Z,23.83
2022-11-24T19:43:28.022Z,25.17
2022-11-24T19:45:54.656Z,24.30
2022-11-24T19:48:21.340Z,22.38
2022-11-24T19:50:49.311Z,21.52
2022-11-24T19:53:15.910Z,21.52
2022-11-24T19:55:42.471Z,20.92
2022-11-24T19:58:09.034Z,22.45
2022-11-24T20:00:35.605Z,22.42
2022-11-24T20:03:02.268Z,21.15
2022-11-24T20:05:28.853Z,21.92
2022-11-24T20:07:56.954Z,20.35
2022-11-24T20:10:23.654Z,20.48
2022-11-24T20:12:50.628Z,22.13
2022-11-24T20:15:17.257Z,22.23
2022-11-24T20:17:43.840Z,21.70
2022-11-24T20:20:11.234Z,20.95
2022-11-24T20:22:37.795Z,20.67
2022-11-24T20:25:06.550Z,21.60
2022-11-24T20:27:33.133Z,20.90
2022-11-24T20:29:59.733Z,22.85
2022-11-24T20:32:26.311Z,22.00
2022-11-24T20:34:52.939Z,25.38
2022-11-24T20:37:19.513Z,22.08
2022-11-24T20:39:46.078Z,23.50
2022-11-24T20:42:14.044Z,23.58
2022-11-24T20:44:40.627Z,24.88
2022-11-24T20:47:07.185Z,25.08
2022-11-24T20:49:33.765Z,22.00
2022-11-24T20:52:00.356Z,24.25
2022-11-24T20:54:27.254Z,24.02
2022-11-24T20:56:54.167Z,22.58
2022-11-24T20:59:24.021Z,24.48
2022-11-24T21:01:51.934Z,22.45
2022-11-24T21:04:20.865Z,23.35
2022-11-24T21:06:47.614Z,42.05
2022-11-24T21:09:14.693Z,33.30
2022-11-24T21:11:41.754Z,36.58
2022-11-24T21:14:09.023Z,31.63
2022-11-24T21:16:38.576Z,27.23
2022-11-24T21:19:07.378Z,39.58
2022-11-24T21:21:35.948Z,57.88
2022-11-24T21:24:04.222Z,39.08
2022-11-24T21:26:30.791Z,34.97
2022-11-24T21:28:57.657Z,36.08
2022-11-24T21:31:24.307Z,32.58
2022-11-24T21:33:53.986Z,24.25
2022-11-24T21:36:22.751Z,23.42
2022-11-24T21:38:51.202Z,24.35
2022-11-24T21:41:18.654Z,35.30
2022-11-24T21:43:45.317Z,36.90
2022-11-24T21:46:12.949Z,38.95
2022-11-24T21:48:40.382Z,61.35
2022-11-24T21:51:12.314Z,53.10
2022-11-24T21:53:39.607Z,70.95
2022-11-24T21:56:07.960Z,79.75
2022-11-24T21:58:34.573Z,87.00
2022-11-24T22:01:02.127Z,58.42
2022-11-24T22:03:28.744Z,51.25
2022-11-24T22:05:56.532Z,41.63
2022-11-24T22:08:25.942Z,36.40
2022-11-24T22:10:52.885Z,28.27
2022-11-24T22:13:20.137Z,21.50
2022-11-24T22:15:46.753Z,21.55
2022-11-24T22:18:13.301Z,21.05
2022-11-24T22:20:39.881Z,26.85
2022-11-24T22:23:06.478Z,22.42
2022-11-24T22:25:34.704Z,25.38
2022-11-24T22:28:01.339Z,31.55
2022-11-24T22:30:27.940Z,30.67
2022-11-24T22:32:54.536Z,33.13
2022-11-24T22:35:21.897Z,29.88
2022-11-24T22:37:48.452Z,26.83
2022-11-24T22:40:15.260Z,36.45
2022-11-24T22:42:43.213Z,29.48
2022-11-24T22:45:10.452Z,22.48
2022-11-24T22:47:37.017Z,22.77
2022-11-24T22:50:04.553Z,22.38
2022-11-24T22:52:31.132Z,20.85
2022-11-24T22:54:57.713Z,19.90
2022-11-24T22:57:24.327Z,19.67
2022-11-24T22:59:52.300Z,20.52
2022-11-24T23:02:18.905Z,18.88
2022-11-24T23:04:45.464Z,19.58
2022-11-24T23:07:12.069Z,19.60
2022-11-24T23:09:38.629Z,19.20
2022-11-24T23:12:05.740Z,18.42
2022-11-24T23:14:32.408Z,19.65
2022-11-24T23:17:00.372Z,20.27
2022-11-24T23:19:26.964Z,19.65
2022-11-24T23:21:53.507Z,20.23
2022-11-24T23:24:20.090Z,18.98
2022-11-24T23:26:46.716Z,19.35
2022-11-24T23:29:13.354Z,18.50
2022-11-24T23:31:40.302Z,20.08
2022-11-24T23:34:08.519Z,19.35
2022-11-24T23:36:35.246Z,19.35
2022-11-24T23:39:03.329Z,19.45
2022-11-24T23:41:31.030Z,18.60
2022-11-24T23:43:57.668Z,19.90
2022-11-24T23:46:25.838Z,18.33
2022-11-24T23:48:53.980Z,19.15
2022-11-24T23:51:23.662Z,18.77
2022-11-24T23:53:51.120Z,18.40
2022-11-24T23:56:19.641Z,17.65
2022-11-24T23:58:46.642Z,18.63
